Terminal Aerodrome Forecast
Issued by NWS Twin Cities, MN

Home | Current Version | Previous Version | Graphics & Text | Print | Product List | Glossary On
Versions: 1 2 3 4 5 6 7 8 9 10 11 12 13 14 15 16 17 18 19 20 21 22 23 24 25 26 27
009
FTUS43 KMPX 111450 AAA
TAFMSP
TAF AMD
KMSP 111450Z 1115/1218 VRB02KT P6SM SCT250
     FM111800 22005KT P6SM BKN100
     FM120300 29006KT P6SM OVC025
     FM120800 31008KT P6SM BKN050
     FM121400 32013G20KT P6SM SKC=

USA.gov is the U.S. government's official web portal to all federal, state and local government web resources and services.